Calumet, IA (51009)

04:29 PM CST del 24 novembre 2014 (GMT -0600)
Cherokee Municipal | Change Station
CLOSE
Current Station
Aeroporto
Location: Cherokee,
Altitudine: 1227 ft
Stazioni meteo nelle vicinanze
Avvisi attivi: Wind Advisory

Alt. 1227 ft 42.73 °N, 95.56 °W | Updated 14 minutes ago

Coperto
Coperto
24 °F
Sembra 12 °F
N
15
Vento Variabile Vento da NO
Gusts 24 mph

Oggi
Massima -- | Minima -- °F
--% Possibilità di precip.
Ieri
Massima -- | Minima -- °F
Precip. -- in
7:25 AM 4:51 PM
Luna crescente, 7% visible
Pressione 29.81 in
Visibilità 10.0 miglia
Nuvole Coperto 2800 ft
Raffreddamento del vento 12 °F
Punto di rugiada 15 °F
Umidità 69%
Piovosità 0.00 in
Spessore del manto nevoso Non disponibile.
Raggi UV 0 fuori da 12
Polline .10 fuori da 12
Qualità dell'aria Non disponibile.
Flu Activity Non disponibile.
METAR KCKP 242215Z AUTO 32013G21KT 10SM OVC028 M04/M09 A2981 RMK AO2 T10441094

More Conditions Fewer Conditions

Pressione 29.81 in
Visibilità 10.0 miglia
Nuvole Coperto 2800 ft
Raffreddamento del vento 12 °F
Punto di rugiada 15 °F
Umidità 69%
Piovosità 0.00 in
Spessore del manto nevoso Non disponibile.
Raggi UV 0 fuori da 12
Polline .10 fuori da 12
Qualità dell'aria Non disponibile.
Flu Activity Non disponibile.
METAR KCKP 242215Z AUTO 32013G21KT 10SM OVC028 M04/M09 A2981 RMK AO2 T10441094

More Conditions Fewer Conditions

10-Day Weather Forecast

Almanac

Astronomia

Nov. 24, 2014 Alba Tramonto
Ora attuale
Crepuscolo civile
Crepuscolo nautico
Crepuscolo astronomico
Luna
Estensione della luce visibile
Lunghezza del giorno
Tomorrow will be .
, % of the Moon is Illuminated

Gli estremi di oggi

State Highs State Lows

Community

WunderPhotos

Upload Photos

1,773,427 foto caricate!

WunderBlogs® & News

Nearby

Qualità dell'aria

  Qualità dell'aria Indice AQ Inquinante
Not available.

Profondità neve

Stazione Profondità Altitudine

Attività sismica

Città  Distanza Mag. Data & Ora
Minimo Magnitudo Mostrato è 2.5.

Temperature delle acque costiere

Località Temperatura

Stazioni meteo nelle vicinanze